Altoona-Blair County Airport

Airport
ICAO code: 
KAOO
IATA Code: 
ADO
Summary
ICAO Region: 
NAM
Territory: 
Location: 
Altoona, Pennsylvania,
Serving: 
Altoona
Elevation: 
1504 ft
Coordinates: 
Aerial View: 
40° 17' 46" N, 78° 19' 12" W
Airport WX: 
Cumulonimbus
Metar
Observation
KAOO 271119Z AUTO 31013G20KT 10SM OVC029 M02/M09 A2996 RMK AO2 T10221089
Station
Altoona, Altoona-Blair County Airport
Date/Time
2021-11-27 11:19:00
Wind direction
310°
Wind speed
13 kts
Lowest cloud amount
overcast
Temperature
-2.2°C
Dew point
-8.9°C
Humidity
60%
Weather condition
n/a

Description

Altoona–Blair County Airport is a public use airport located 22 km south of the central business district of Altoona, a city in Blair County, Pennsylvania.

Climatology

Humid Continental climate (Köppen climate classification Dfb) - Variable weather patterns and a large seasonal temperature variance. Summers are often warm and humid with frequent thunderstorms and winters can be very cold with frequent snowfall and persistent snow cover.

Runways

Designator Length Width Surface Rops
12/30 1118 23 ASP Yes/Yes
3/21 1666 30 ASP Yes/Yes
Airport map: 
Aerial View: 

SKYbrary Partners:

Safety knowledge contributed by: